sensor_id;sensor_type;location;lat;lon;timestamp;temperature;humidity
38380;DHT22;38377;47.418;18.882;2023-08-08T00:01:05;13.70;99.90
38380;DHT22;38377;47.418;18.882;2023-08-08T00:03:31;13.60;99.90
38380;DHT22;38377;47.418;18.882;2023-08-08T00:05:56;13.60;99.90
38380;DHT22;38377;47.418;18.882;2023-08-08T00:08:22;13.60;99.90
38380;DHT22;38377;47.418;18.882;2023-08-08T00:10:48;13.60;99.90
38380;DHT22;38377;47.418;18.882;2023-08-08T00:13:13;13.60;99.90
38380;DHT22;38377;47.418;18.882;2023-08-08T00:15:39;13.60;99.90
38380;DHT22;38377;47.418;18.882;2023-08-08T00:18:05;13.60;99.90
38380;DHT22;38377;47.418;18.882;2023-08-08T00:20:31;13.50;99.90
38380;DHT22;38377;47.418;18.882;2023-08-08T00:22:56;13.50;99.90
38380;DHT22;38377;47.418;18.882;2023-08-08T00:25:22;13.60;99.90
38380;DHT22;38377;47.418;18.882;2023-08-08T00:27:49;13.50;99.90
38380;DHT22;38377;47.418;18.882;2023-08-08T00:30:15;13.50;99.90
38380;DHT22;38377;47.418;18.882;2023-08-08T00:32:41;13.50;99.90
38380;DHT22;38377;47.418;18.882;2023-08-08T00:35:07;13.50;99.90
38380;DHT22;38377;47.418;18.882;2023-08-08T00:37:33;13.50;99.90
38380;DHT22;38377;47.418;18.882;2023-08-08T00:39:59;13.50;99.90
38380;DHT22;38377;47.418;18.882;2023-08-08T00:42:27;13.50;99.90
38380;DHT22;38377;47.418;18.882;2023-08-08T00:44:53;13.40;99.90
38380;DHT22;38377;47.418;18.882;2023-08-08T00:47:18;13.40;99.90
38380;DHT22;38377;47.418;18.882;2023-08-08T00:49:44;13.40;99.90
38380;DHT22;38377;47.418;18.882;2023-08-08T00:52:12;13.40;99.90
38380;DHT22;38377;47.418;18.882;2023-08-08T00:54:37;13.40;99.90
38380;DHT22;38377;47.418;18.882;2023-08-08T00:57:03;13.40;99.90
38380;DHT22;38377;47.418;18.882;2023-08-08T00:59:29;13.40;99.90
38380;DHT22;38377;47.418;18.882;2023-08-08T01:01:57;13.30;99.90
38380;DHT22;38377;47.418;18.882;2023-08-08T01:04:25;13.30;99.90
38380;DHT22;38377;47.418;18.882;2023-08-08T01:09:45;13.30;99.90
38380;DHT22;38377;47.418;18.882;2023-08-08T01:12:14;13.30;99.90
38380;DHT22;38377;47.418;18.882;2023-08-08T01:14:42;13.30;99.90
38380;DHT22;38377;47.418;18.882;2023-08-08T01:17:09;13.30;99.90
38380;DHT22;38377;47.418;18.882;2023-08-08T01:19:36;13.20;99.90
38380;DHT22;38377;47.418;18.882;2023-08-08T01:22:09;13.20;99.90
38380;DHT22;38377;47.418;18.882;2023-08-08T01:24:35;13.20;99.90
38380;DHT22;38377;47.418;18.882;2023-08-08T01:27:03;13.20;99.90
38380;DHT22;38377;47.418;18.882;2023-08-08T01:29:28;13.20;99.90
38380;DHT22;38377;47.418;18.882;2023-08-08T01:31:54;13.20;99.90
38380;DHT22;38377;47.418;18.882;2023-08-08T01:34:20;13.10;99.90
38380;DHT22;38377;47.418;18.882;2023-08-08T01:37:11;13.10;99.90
38380;DHT22;38377;47.418;18.882;2023-08-08T01:39:40;13.10;99.90
38380;DHT22;38377;47.418;18.882;2023-08-08T01:42:06;13.10;99.90
38380;DHT22;38377;47.418;18.882;2023-08-08T01:44:33;13.00;99.90
38380;DHT22;38377;47.418;18.882;2023-08-08T01:47:00;13.10;99.90
38380;DHT22;38377;47.418;18.882;2023-08-08T01:49:26;13.00;99.90
38380;DHT22;38377;47.418;18.882;2023-08-08T01:51:51;13.00;99.90
38380;DHT22;38377;47.418;18.882;2023-08-08T01:54:18;13.00;99.90
38380;DHT22;38377;47.418;18.882;2023-08-08T01:56:44;12.90;99.90
38380;DHT22;38377;47.418;18.882;2023-08-08T01:59:15;12.90;99.90
38380;DHT22;38377;47.418;18.882;2023-08-08T02:01:41;12.90;99.90
38380;DHT22;38377;47.418;18.882;2023-08-08T02:04:06;12.90;99.90
38380;DHT22;38377;47.418;18.882;2023-08-08T02:06:32;12.90;99.90
38380;DHT22;38377;47.418;18.882;2023-08-08T02:08:58;12.80;99.90
38380;DHT22;38377;47.418;18.882;2023-08-08T02:11:24;12.80;99.90
38380;DHT22;38377;47.418;18.882;2023-08-08T02:13:49;12.80;99.90
38380;DHT22;38377;47.418;18.882;2023-08-08T02:16:15;12.80;99.90
38380;DHT22;38377;47.418;18.882;2023-08-08T02:18:41;12.70;99.90
38380;DHT22;38377;47.418;18.882;2023-08-08T02:21:09;12.70;99.90
38380;DHT22;38377;47.418;18.882;2023-08-08T02:23:35;12.70;99.90
38380;DHT22;38377;47.418;18.882;2023-08-08T02:26:01;12.70;99.90
38380;DHT22;38377;47.418;18.882;2023-08-08T02:28:27;12.70;99.90
38380;DHT22;38377;47.418;18.882;2023-08-08T02:30:53;12.70;99.90
38380;DHT22;38377;47.418;18.882;2023-08-08T02:33:18;12.70;99.90
38380;DHT22;38377;47.418;18.882;2023-08-08T02:35:45;12.60;99.90
38380;DHT22;38377;47.418;18.882;2023-08-08T02:38:11;12.60;99.90
38380;DHT22;38377;47.418;18.882;2023-08-08T02:40:36;12.60;99.90
38380;DHT22;38377;47.418;18.882;2023-08-08T02:43:04;12.60;99.90
38380;DHT22;38377;47.418;18.882;2023-08-08T02:45:29;12.60;99.90
38380;DHT22;38377;47.418;18.882;2023-08-08T02:47:55;12.60;99.90
38380;DHT22;38377;47.418;18.882;2023-08-08T02:50:21;12.60;99.90
38380;DHT22;38377;47.418;18.882;2023-08-08T02:52:46;12.60;99.90
38380;DHT22;38377;47.418;18.882;2023-08-08T02:55:18;12.50;99.90
38380;DHT22;38377;47.418;18.882;2023-08-08T02:57:44;12.50;99.90
38380;DHT22;38377;47.418;18.882;2023-08-08T03:00:10;12.50;99.90
38380;DHT22;38377;47.418;18.882;2023-08-08T03:02:37;12.50;99.90
38380;DHT22;38377;47.418;18.882;2023-08-08T03:05:03;12.40;99.90
38380;DHT22;38377;47.418;18.882;2023-08-08T03:07:29;12.40;99.90
38380;DHT22;38377;47.418;18.882;2023-08-08T03:09:55;12.30;99.90
38380;DHT22;38377;47.418;18.882;2023-08-08T03:12:21;12.20;99.90
38380;DHT22;38377;47.418;18.882;2023-08-08T03:14:47;12.20;99.90
38380;DHT22;38377;47.418;18.882;2023-08-08T03:17:12;12.20;99.90
38380;DHT22;38377;47.418;18.882;2023-08-08T03:19:43;12.10;99.90
38380;DHT22;38377;47.418;18.882;2023-08-08T03:22:14;12.00;99.90
38380;DHT22;38377;47.418;18.882;2023-08-08T03:24:40;11.90;99.90
38380;DHT22;38377;47.418;18.882;2023-08-08T03:27:06;11.90;99.90
38380;DHT22;38377;47.418;18.882;2023-08-08T03:29:31;11.90;99.90
38380;DHT22;38377;47.418;18.882;2023-08-08T03:31:57;11.90;99.90
38380;DHT22;38377;47.418;18.882;2023-08-08T03:34:23;12.00;99.90
38380;DHT22;38377;47.418;18.882;2023-08-08T03:36:48;12.00;99.90
38380;DHT22;38377;47.418;18.882;2023-08-08T03:39:14;11.90;99.90
38380;DHT22;38377;47.418;18.882;2023-08-08T03:41:40;12.00;99.90
38380;DHT22;38377;47.418;18.882;2023-08-08T03:44:05;12.00;99.90
38380;DHT22;38377;47.418;18.882;2023-08-08T03:46:31;12.00;99.90
38380;DHT22;38377;47.418;18.882;2023-08-08T03:48:57;12.00;99.90
38380;DHT22;38377;47.418;18.882;2023-08-08T03:51:23;12.10;99.90
38380;DHT22;38377;47.418;18.882;2023-08-08T03:53:48;12.20;99.90
38380;DHT22;38377;47.418;18.882;2023-08-08T03:56:14;12.20;99.90
38380;DHT22;38377;47.418;18.882;2023-08-08T03:58:40;12.20;99.90
38380;DHT22;38377;47.418;18.882;2023-08-08T04:01:05;12.20;99.90
38380;DHT22;38377;47.418;18.882;2023-08-08T04:03:31;12.20;99.90
38380;DHT22;38377;47.418;18.882;2023-08-08T04:05:57;12.30;99.90
38380;DHT22;38377;47.418;18.882;2023-08-08T04:08:22;12.30;99.90
38380;DHT22;38377;47.418;18.882;2023-08-08T04:10:48;12.30;99.90
38380;DHT22;38377;47.418;18.882;2023-08-08T04:13:13;12.40;99.90
38380;DHT22;38377;47.418;18.882;2023-08-08T04:15:39;12.40;99.90
38380;DHT22;38377;47.418;18.882;2023-08-08T04:18:05;12.40;99.90
38380;DHT22;38377;47.418;18.882;2023-08-08T04:20:33;12.50;99.90
38380;DHT22;38377;47.418;18.882;2023-08-08T04:22:59;12.50;99.90
38380;DHT22;38377;47.418;18.882;2023-08-08T04:25:25;12.60;99.90
38380;DHT22;38377;47.418;18.882;2023-08-08T04:27:50;12.70;99.90
38380;DHT22;38377;47.418;18.882;2023-08-08T04:30:16;12.70;99.90
38380;DHT22;38377;47.418;18.882;2023-08-08T04:32:42;12.70;99.90
38380;DHT22;38377;47.418;18.882;2023-08-08T04:35:07;12.80;99.90
38380;DHT22;38377;47.418;18.882;2023-08-08T04:37:33;12.90;99.90
38380;DHT22;38377;47.418;18.882;2023-08-08T04:39:59;13.10;99.90
38380;DHT22;38377;47.418;18.882;2023-08-08T04:42:24;13.30;99.90
38380;DHT22;38377;47.418;18.882;2023-08-08T04:44:50;13.40;99.90
38380;DHT22;38377;47.418;18.882;2023-08-08T04:47:15;13.40;99.90
38380;DHT22;38377;47.418;18.882;2023-08-08T04:49:42;13.50;99.90
38380;DHT22;38377;47.418;18.882;2023-08-08T04:52:08;13.40;99.90
38380;DHT22;38377;47.418;18.882;2023-08-08T04:54:33;13.40;99.90
38380;DHT22;38377;47.418;18.882;2023-08-08T04:56:59;13.40;99.90
38380;DHT22;38377;47.418;18.882;2023-08-08T04:59:24;13.50;99.90
38380;DHT22;38377;47.418;18.882;2023-08-08T05:01:50;13.50;99.90
38380;DHT22;38377;47.418;18.882;2023-08-08T05:04:17;13.50;99.90
38380;DHT22;38377;47.418;18.882;2023-08-08T05:06:43;13.60;99.90
38380;DHT22;38377;47.418;18.882;2023-08-08T05:09:09;13.60;99.90
38380;DHT22;38377;47.418;18.882;2023-08-08T05:11:35;13.60;99.90
38380;DHT22;38377;47.418;18.882;2023-08-08T05:14:01;13.70;99.90
38380;DHT22;38377;47.418;18.882;2023-08-08T05:16:28;13.80;99.90
38380;DHT22;38377;47.418;18.882;2023-08-08T05:18:54;14.00;99.90
38380;DHT22;38377;47.418;18.882;2023-08-08T05:21:21;14.20;99.90
38380;DHT22;38377;47.418;18.882;2023-08-08T05:23:46;14.40;99.90
38380;DHT22;38377;47.418;18.882;2023-08-08T05:26:13;14.40;99.90
38380;DHT22;38377;47.418;18.882;2023-08-08T05:28:38;14.50;99.90
38380;DHT22;38377;47.418;18.882;2023-08-08T05:31:04;14.50;99.90
38380;DHT22;38377;47.418;18.882;2023-08-08T05:33:30;14.40;99.90
38380;DHT22;38377;47.418;18.882;2023-08-08T05:35:55;14.40;99.90
38380;DHT22;38377;47.418;18.882;2023-08-08T05:38:21;14.50;99.90
38380;DHT22;38377;47.418;18.882;2023-08-08T05:40:47;14.50;99.90
38380;DHT22;38377;47.418;18.882;2023-08-08T05:43:12;14.70;99.90
38380;DHT22;38377;47.418;18.882;2023-08-08T05:45:42;14.70;99.90
38380;DHT22;38377;47.418;18.882;2023-08-08T05:48:08;14.90;99.90
38380;DHT22;38377;47.418;18.882;2023-08-08T05:50:40;15.00;99.90
38380;DHT22;38377;47.418;18.882;2023-08-08T05:53:06;15.20;99.90
38380;DHT22;38377;47.418;18.882;2023-08-08T05:55:32;15.20;99.90
38380;DHT22;38377;47.418;18.882;2023-08-08T05:57:57;15.30;99.90
38380;DHT22;38377;47.418;18.882;2023-08-08T06:00:23;15.40;99.90
38380;DHT22;38377;47.418;18.882;2023-08-08T06:02:49;15.40;99.90
38380;DHT22;38377;47.418;18.882;2023-08-08T06:05:16;15.40;99.90
38380;DHT22;38377;47.418;18.882;2023-08-08T06:07:42;15.50;99.90
38380;DHT22;38377;47.418;18.882;2023-08-08T06:10:08;15.50;99.90
38380;DHT22;38377;47.418;18.882;2023-08-08T06:12:34;15.50;99.90
38380;DHT22;38377;47.418;18.882;2023-08-08T06:14:59;15.60;99.90
38380;DHT22;38377;47.418;18.882;2023-08-08T06:17:25;15.70;99.90
38380;DHT22;38377;47.418;18.882;2023-08-08T06:19:51;15.80;99.90
38380;DHT22;38377;47.418;18.882;2023-08-08T06:22:17;15.90;99.90
38380;DHT22;38377;47.418;18.882;2023-08-08T06:24:42;15.80;99.90
38380;DHT22;38377;47.418;18.882;2023-08-08T06:27:08;15.90;99.90
38380;DHT22;38377;47.418;18.882;2023-08-08T06:29:34;16.10;99.90
38380;DHT22;38377;47.418;18.882;2023-08-08T06:31:59;16.20;99.90
38380;DHT22;38377;47.418;18.882;2023-08-08T06:34:25;16.40;99.90
38380;DHT22;38377;47.418;18.882;2023-08-08T06:36:51;16.60;99.90
38380;DHT22;38377;47.418;18.882;2023-08-08T06:39:17;16.60;99.90
38380;DHT22;38377;47.418;18.882;2023-08-08T06:41:46;16.50;99.90
38380;DHT22;38377;47.418;18.882;2023-08-08T06:44:12;16.50;99.90
38380;DHT22;38377;47.418;18.882;2023-08-08T06:46:37;16.40;99.90
38380;DHT22;38377;47.418;18.882;2023-08-08T06:49:03;16.50;99.90
38380;DHT22;38377;47.418;18.882;2023-08-08T06:51:30;16.50;99.90
38380;DHT22;38377;47.418;18.882;2023-08-08T06:53:56;16.60;99.90
38380;DHT22;38377;47.418;18.882;2023-08-08T06:56:21;16.70;99.90
38380;DHT22;38377;47.418;18.882;2023-08-08T06:58:47;16.80;99.90
38380;DHT22;38377;47.418;18.882;2023-08-08T07:01:13;17.00;99.90
38380;DHT22;38377;47.418;18.882;2023-08-08T07:03:39;17.10;99.90
38380;DHT22;38377;47.418;18.882;2023-08-08T07:06:05;17.20;99.90
38380;DHT22;38377;47.418;18.882;2023-08-08T07:08:31;17.30;99.90
38380;DHT22;38377;47.418;18.882;2023-08-08T07:10:58;17.30;99.60
38380;DHT22;38377;47.418;18.882;2023-08-08T07:13:24;17.40;99.90
38380;DHT22;38377;47.418;18.882;2023-08-08T07:15:49;17.40;99.00
38380;DHT22;38377;47.418;18.882;2023-08-08T07:18:15;17.40;99.20
38380;DHT22;38377;47.418;18.882;2023-08-08T07:20:41;17.50;98.60
38380;DHT22;38377;47.418;18.882;2023-08-08T07:23:06;17.50;98.40
38380;DHT22;38377;47.418;18.882;2023-08-08T07:25:32;17.50;98.70
38380;DHT22;38377;47.418;18.882;2023-08-08T07:27:58;17.50;98.50
38380;DHT22;38377;47.418;18.882;2023-08-08T07:30:23;17.40;98.40
38380;DHT22;38377;47.418;18.882;2023-08-08T07:32:50;17.60;98.60
38380;DHT22;38377;47.418;18.882;2023-08-08T07:35:16;17.70;98.20
38380;DHT22;38377;47.418;18.882;2023-08-08T07:37:43;18.00;98.80
38380;DHT22;38377;47.418;18.882;2023-08-08T07:40:18;18.20;98.10
38380;DHT22;38377;47.418;18.882;2023-08-08T07:42:45;18.50;98.00
38380;DHT22;38377;47.418;18.882;2023-08-08T07:45:11;18.40;96.70
38380;DHT22;38377;47.418;18.882;2023-08-08T07:47:37;18.30;97.90
38380;DHT22;38377;47.418;18.882;2023-08-08T07:50:03;18.40;97.20
38380;DHT22;38377;47.418;18.882;2023-08-08T07:52:29;18.50;97.20
38380;DHT22;38377;47.418;18.882;2023-08-08T07:54:54;18.70;96.50
38380;DHT22;38377;47.418;18.882;2023-08-08T07:57:20;18.80;95.40
38380;DHT22;38377;47.418;18.882;2023-08-08T07:59:46;18.90;96.10
38380;DHT22;38377;47.418;18.882;2023-08-08T08:02:11;19.10;96.60
38380;DHT22;38377;47.418;18.882;2023-08-08T08:04:37;19.20;95.20
38380;DHT22;38377;47.418;18.882;2023-08-08T08:07:03;19.00;94.50
38380;DHT22;38377;47.418;18.882;2023-08-08T08:09:28;19.00;95.10
38380;DHT22;38377;47.418;18.882;2023-08-08T08:11:54;19.10;94.00
38380;DHT22;38377;47.418;18.882;2023-08-08T08:14:21;19.30;93.00
38380;DHT22;38377;47.418;18.882;2023-08-08T08:16:53;19.40;93.60
38380;DHT22;38377;47.418;18.882;2023-08-08T08:19:20;19.50;93.20
38380;DHT22;38377;47.418;18.882;2023-08-08T08:21:45;19.40;93.60
38380;DHT22;38377;47.418;18.882;2023-08-08T08:24:11;19.50;92.60
38380;DHT22;38377;47.418;18.882;2023-08-08T08:26:37;19.70;92.90
38380;DHT22;38377;47.418;18.882;2023-08-08T08:29:02;19.80;91.90
38380;DHT22;38377;47.418;18.882;2023-08-08T08:31:28;20.00;91.70
38380;DHT22;38377;47.418;18.882;2023-08-08T08:33:54;20.20;91.80
38380;DHT22;38377;47.418;18.882;2023-08-08T08:36:20;20.40;92.20
38380;DHT22;38377;47.418;18.882;2023-08-08T08:38:47;20.30;91.30
38380;DHT22;38377;47.418;18.882;2023-08-08T08:41:17;20.00;91.20
38380;DHT22;38377;47.418;18.882;2023-08-08T08:43:43;19.90;91.30
38380;DHT22;38377;47.418;18.882;2023-08-08T08:46:11;19.80;89.90
38380;DHT22;38377;47.418;18.882;2023-08-08T08:48:37;19.80;90.70
38380;DHT22;38377;47.418;18.882;2023-08-08T08:51:03;19.70;90.80
38380;DHT22;38377;47.418;18.882;2023-08-08T08:53:29;19.60;90.60
38380;DHT22;38377;47.418;18.882;2023-08-08T08:56:01;19.60;90.60
38380;DHT22;38377;47.418;18.882;2023-08-08T08:58:28;19.90;90.20
38380;DHT22;38377;47.418;18.882;2023-08-08T09:00:55;19.90;90.50
38380;DHT22;38377;47.418;18.882;2023-08-08T09:03:21;20.10;89.80
38380;DHT22;38377;47.418;18.882;2023-08-08T09:05:47;20.00;90.60
38380;DHT22;38377;47.418;18.882;2023-08-08T09:08:13;20.00;90.90
38380;DHT22;38377;47.418;18.882;2023-08-08T09:10:40;20.00;90.80
38380;DHT22;38377;47.418;18.882;2023-08-08T09:13:06;20.00;91.90
38380;DHT22;38377;47.418;18.882;2023-08-08T09:15:33;20.10;92.30
38380;DHT22;38377;47.418;18.882;2023-08-08T09:18:00;19.90;90.70
38380;DHT22;38377;47.418;18.882;2023-08-08T09:20:26;20.00;91.10
38380;DHT22;38377;47.418;18.882;2023-08-08T09:22:56;20.00;91.60
38380;DHT22;38377;47.418;18.882;2023-08-08T09:25:23;20.00;90.30
38380;DHT22;38377;47.418;18.882;2023-08-08T09:27:52;20.10;90.20
38380;DHT22;38377;47.418;18.882;2023-08-08T09:30:20;20.40;90.40
38380;DHT22;38377;47.418;18.882;2023-08-08T09:32:46;20.20;90.90
38380;DHT22;38377;47.418;18.882;2023-08-08T09:35:12;20.00;90.00
38380;DHT22;38377;47.418;18.882;2023-08-08T09:37:38;19.90;89.70
38380;DHT22;38377;47.418;18.882;2023-08-08T09:40:05;20.00;92.20
38380;DHT22;38377;47.418;18.882;2023-08-08T09:42:33;20.20;91.00
38380;DHT22;38377;47.418;18.882;2023-08-08T09:45:00;20.20;90.50
38380;DHT22;38377;47.418;18.882;2023-08-08T09:47:25;20.10;90.30
38380;DHT22;38377;47.418;18.882;2023-08-08T09:50:00;19.90;90.30
38380;DHT22;38377;47.418;18.882;2023-08-08T09:52:27;20.10;90.80
38380;DHT22;38377;47.418;18.882;2023-08-08T09:54:53;20.20;91.30
38380;DHT22;38377;47.418;18.882;2023-08-08T09:57:20;20.30;90.90
38380;DHT22;38377;47.418;18.882;2023-08-08T09:59:48;20.30;91.30
38380;DHT22;38377;47.418;18.882;2023-08-08T10:02:15;20.50;90.80
38380;DHT22;38377;47.418;18.882;2023-08-08T10:04:47;20.50;90.20
38380;DHT22;38377;47.418;18.882;2023-08-08T10:07:14;20.40;89.30
38380;DHT22;38377;47.418;18.882;2023-08-08T10:09:40;20.50;90.10
38380;DHT22;38377;47.418;18.882;2023-08-08T10:12:07;20.50;88.30
38380;DHT22;38377;47.418;18.882;2023-08-08T10:14:38;20.40;87.40
38380;DHT22;38377;47.418;18.882;2023-08-08T10:17:07;20.50;88.30
38380;DHT22;38377;47.418;18.882;2023-08-08T10:19:34;20.60;88.40
38380;DHT22;38377;47.418;18.882;2023-08-08T10:22:05;20.60;86.40
38380;DHT22;38377;47.418;18.882;2023-08-08T10:24:38;20.60;87.40
38380;DHT22;38377;47.418;18.882;2023-08-08T10:27:04;20.60;87.30
38380;DHT22;38377;47.418;18.882;2023-08-08T10:29:32;20.70;86.90
38380;DHT22;38377;47.418;18.882;2023-08-08T10:32:00;20.60;86.00
38380;DHT22;38377;47.418;18.882;2023-08-08T10:34:42;20.40;87.00
38380;DHT22;38377;47.418;18.882;2023-08-08T10:37:17;20.30;87.90
38380;DHT22;38377;47.418;18.882;2023-08-08T10:39:57;20.30;85.60
38380;DHT22;38377;47.418;18.882;2023-08-08T10:42:25;20.10;86.90
38380;DHT22;38377;47.418;18.882;2023-08-08T10:44:56;20.10;87.60
38380;DHT22;38377;47.418;18.882;2023-08-08T10:47:36;20.10;89.90
38380;DHT22;38377;47.418;18.882;2023-08-08T10:50:14;20.20;89.30
38380;DHT22;38377;47.418;18.882;2023-08-08T10:55:34;20.40;86.60
38380;DHT22;38377;47.418;18.882;2023-08-08T10:58:09;20.80;85.90
38380;DHT22;38377;47.418;18.882;2023-08-08T11:00:39;21.10;85.40
38380;DHT22;38377;47.418;18.882;2023-08-08T11:03:05;21.10;84.50
38380;DHT22;38377;47.418;18.882;2023-08-08T11:05:32;21.20;83.30
38380;DHT22;38377;47.418;18.882;2023-08-08T11:08:00;21.30;83.70
38380;DHT22;38377;47.418;18.882;2023-08-08T11:10:26;21.20;83.30
38380;DHT22;38377;47.418;18.882;2023-08-08T11:13:03;20.90;83.00
38380;DHT22;38377;47.418;18.882;2023-08-08T11:15:31;21.00;83.00
38380;DHT22;38377;47.418;18.882;2023-08-08T11:17:57;21.00;85.50
38380;DHT22;38377;47.418;18.882;2023-08-08T11:20:24;21.10;84.80
38380;DHT22;38377;47.418;18.882;2023-08-08T11:22:54;21.30;85.30
38380;DHT22;38377;47.418;18.882;2023-08-08T11:25:21;21.40;83.70
38380;DHT22;38377;47.418;18.882;2023-08-08T11:27:51;21.50;81.90
38380;DHT22;38377;47.418;18.882;2023-08-08T11:30:18;21.80;82.00
38380;DHT22;38377;47.418;18.882;2023-08-08T11:32:48;21.60;82.20
38380;DHT22;38377;47.418;18.882;2023-08-08T11:35:21;21.40;82.00
38380;DHT22;38377;47.418;18.882;2023-08-08T11:37:47;21.10;81.20
38380;DHT22;38377;47.418;18.882;2023-08-08T11:40:14;20.90;84.00
38380;DHT22;38377;47.418;18.882;2023-08-08T11:42:41;20.80;79.90
38380;DHT22;38377;47.418;18.882;2023-08-08T11:45:10;20.80;82.50
38380;DHT22;38377;47.418;18.882;2023-08-08T11:47:38;20.90;86.10
38380;DHT22;38377;47.418;18.882;2023-08-08T11:50:09;21.00;81.10
38380;DHT22;38377;47.418;18.882;2023-08-08T11:52:39;21.10;83.30
38380;DHT22;38377;47.418;18.882;2023-08-08T11:55:09;21.30;80.70
38380;DHT22;38377;47.418;18.882;2023-08-08T11:57:36;21.70;84.00
38380;DHT22;38377;47.418;18.882;2023-08-08T12:00:06;22.00;82.00
38380;DHT22;38377;47.418;18.882;2023-08-08T12:02:33;22.30;82.30
38380;DHT22;38377;47.418;18.882;2023-08-08T12:05:10;22.30;77.80
38380;DHT22;38377;47.418;18.882;2023-08-08T12:07:39;22.30;75.70
38380;DHT22;38377;47.418;18.882;2023-08-08T12:10:19;22.40;75.80
38380;DHT22;38377;47.418;18.882;2023-08-08T12:12:46;22.50;73.70
38380;DHT22;38377;47.418;18.882;2023-08-08T12:15:13;22.70;70.80
38380;DHT22;38377;47.418;18.882;2023-08-08T12:17:39;22.70;73.20
38380;DHT22;38377;47.418;18.882;2023-08-08T12:20:08;22.90;70.40
38380;DHT22;38377;47.418;18.882;2023-08-08T12:22:35;22.80;73.60
38380;DHT22;38377;47.418;18.882;2023-08-08T12:25:01;23.00;73.70
38380;DHT22;38377;47.418;18.882;2023-08-08T12:27:29;23.00;72.30
38380;DHT22;38377;47.418;18.882;2023-08-08T12:29:54;23.20;72.00
38380;DHT22;38377;47.418;18.882;2023-08-08T12:32:21;23.10;70.00
38380;DHT22;38377;47.418;18.882;2023-08-08T12:34:50;23.10;70.00
38380;DHT22;38377;47.418;18.882;2023-08-08T12:37:16;22.90;69.20
38380;DHT22;38377;47.418;18.882;2023-08-08T12:39:42;22.90;69.10
38380;DHT22;38377;47.418;18.882;2023-08-08T12:42:08;22.80;69.00
38380;DHT22;38377;47.418;18.882;2023-08-08T12:44:33;23.00;74.40
38380;DHT22;38377;47.418;18.882;2023-08-08T12:46:59;23.10;68.70
38380;DHT22;38377;47.418;18.882;2023-08-08T12:49:25;23.00;68.20
38380;DHT22;38377;47.418;18.882;2023-08-08T12:51:51;23.10;66.90
38380;DHT22;38377;47.418;18.882;2023-08-08T12:54:17;23.20;66.70
38380;DHT22;38377;47.418;18.882;2023-08-08T12:56:43;23.10;66.00
38380;DHT22;38377;47.418;18.882;2023-08-08T12:59:09;23.20;68.50
38380;DHT22;38377;47.418;18.882;2023-08-08T13:01:35;23.40;67.20
38380;DHT22;38377;47.418;18.882;2023-08-08T13:04:00;23.20;67.20
38380;DHT22;38377;47.418;18.882;2023-08-08T13:06:26;23.10;67.50
38380;DHT22;38377;47.418;18.882;2023-08-08T13:08:52;22.30;67.40
38380;DHT22;38377;47.418;18.882;2023-08-08T13:11:18;21.90;70.10
38380;DHT22;38377;47.418;18.882;2023-08-08T13:13:43;21.70;70.70
38380;DHT22;38377;47.418;18.882;2023-08-08T13:16:09;21.40;73.70
38380;DHT22;38377;47.418;18.882;2023-08-08T13:18:36;21.20;71.80
38380;DHT22;38377;47.418;18.882;2023-08-08T13:21:02;21.00;73.00
38380;DHT22;38377;47.418;18.882;2023-08-08T13:23:28;20.90;71.50
38380;DHT22;38377;47.418;18.882;2023-08-08T13:25:54;20.80;73.60
38380;DHT22;38377;47.418;18.882;2023-08-08T13:28:19;20.60;76.00
38380;DHT22;38377;47.418;18.882;2023-08-08T13:30:45;20.30;78.40
38380;DHT22;38377;47.418;18.882;2023-08-08T13:33:11;20.00;80.20
38380;DHT22;38377;47.418;18.882;2023-08-08T13:35:37;19.80;81.50
38380;DHT22;38377;47.418;18.882;2023-08-08T13:38:03;19.60;82.70
38380;DHT22;38377;47.418;18.882;2023-08-08T13:40:29;19.50;82.50
38380;DHT22;38377;47.418;18.882;2023-08-08T13:42:54;19.40;80.50
38380;DHT22;38377;47.418;18.882;2023-08-08T13:45:20;19.30;80.50
38380;DHT22;38377;47.418;18.882;2023-08-08T13:47:48;19.20;78.80
38380;DHT22;38377;47.418;18.882;2023-08-08T13:50:14;19.20;79.10
38380;DHT22;38377;47.418;18.882;2023-08-08T13:52:45;19.20;80.50
38380;DHT22;38377;47.418;18.882;2023-08-08T13:55:10;19.30;78.60
38380;DHT22;38377;47.418;18.882;2023-08-08T13:57:36;19.30;79.60
38380;DHT22;38377;47.418;18.882;2023-08-08T14:00:03;19.40;79.30
38380;DHT22;38377;47.418;18.882;2023-08-08T14:02:28;19.50;77.50
38380;DHT22;38377;47.418;18.882;2023-08-08T14:04:55;19.60;79.60
38380;DHT22;38377;47.418;18.882;2023-08-08T14:07:21;19.70;78.60
38380;DHT22;38377;47.418;18.882;2023-08-08T14:09:47;19.70;78.90
38380;DHT22;38377;47.418;18.882;2023-08-08T14:12:12;19.80;77.10
38380;DHT22;38377;47.418;18.882;2023-08-08T14:14:38;19.80;77.40
38380;DHT22;38377;47.418;18.882;2023-08-08T14:17:04;19.80;78.40
38380;DHT22;38377;47.418;18.882;2023-08-08T14:19:29;19.80;78.50
38380;DHT22;38377;47.418;18.882;2023-08-08T14:21:55;19.70;80.30
38380;DHT22;38377;47.418;18.882;2023-08-08T14:24:21;19.70;83.50
38380;DHT22;38377;47.418;18.882;2023-08-08T14:26:46;19.70;80.30
38380;DHT22;38377;47.418;18.882;2023-08-08T14:29:18;19.70;80.70
38380;DHT22;38377;47.418;18.882;2023-08-08T14:31:43;19.70;81.50
38380;DHT22;38377;47.418;18.882;2023-08-08T14:34:09;19.80;80.40
38380;DHT22;38377;47.418;18.882;2023-08-08T14:36:34;19.90;82.10
38380;DHT22;38377;47.418;18.882;2023-08-08T14:39:00;20.10;80.40
38380;DHT22;38377;47.418;18.882;2023-08-08T14:41:26;20.20;79.60
38380;DHT22;38377;47.418;18.882;2023-08-08T14:43:52;20.40;78.90
38380;DHT22;38377;47.418;18.882;2023-08-08T14:46:17;20.80;78.10
38380;DHT22;38377;47.418;18.882;2023-08-08T14:48:43;21.00;76.70
38380;DHT22;38377;47.418;18.882;2023-08-08T14:51:08;21.20;73.80
38380;DHT22;38377;47.418;18.882;2023-08-08T14:53:34;21.40;73.40
38380;DHT22;38377;47.418;18.882;2023-08-08T14:56:00;21.20;75.00
38380;DHT22;38377;47.418;18.882;2023-08-08T14:58:25;21.30;76.00
38380;DHT22;38377;47.418;18.882;2023-08-08T15:00:51;21.30;77.30
38380;DHT22;38377;47.418;18.882;2023-08-08T15:03:17;21.30;75.70
38380;DHT22;38377;47.418;18.882;2023-08-08T15:05:45;21.50;73.60
38380;DHT22;38377;47.418;18.882;2023-08-08T15:08:11;21.40;73.00
38380;DHT22;38377;47.418;18.882;2023-08-08T15:10:37;21.30;74.80
38380;DHT22;38377;47.418;18.882;2023-08-08T15:13:02;21.40;74.20
38380;DHT22;38377;47.418;18.882;2023-08-08T15:15:28;21.40;77.10
38380;DHT22;38377;47.418;18.882;2023-08-08T15:17:55;21.40;73.90